createdAt,value
2022-09-10T00:01:32.639Z,7.07
2022-09-10T00:04:02.470Z,7.73
2022-09-10T00:06:33.090Z,7.67
2022-09-10T00:09:02.237Z,7.00
2022-09-10T00:11:31.061Z,8.10
2022-09-10T00:13:59.563Z,7.10
2022-09-10T00:16:30.028Z,7.57
2022-09-10T00:18:58.905Z,7.23
2022-09-10T00:21:27.287Z,7.83
2022-09-10T00:23:55.389Z,7.67
2022-09-10T00:26:25.170Z,7.47
2022-09-10T00:28:55.169Z,8.23
2022-09-10T00:31:24.736Z,6.93
2022-09-10T00:33:54.795Z,7.90
2022-09-10T00:36:25.722Z,7.60
2022-09-10T00:38:55.001Z,7.93
2022-09-10T00:41:24.909Z,7.63
2022-09-10T00:43:55.608Z,7.60
2022-09-10T00:46:34.766Z,8.10
2022-09-10T00:49:10.560Z,7.47
2022-09-10T00:51:40.432Z,8.40
2022-09-10T00:54:09.426Z,8.37
2022-09-10T00:56:39.081Z,8.20
2022-09-10T00:59:10.430Z,8.83
2022-09-10T01:01:40.435Z,7.50
2022-09-10T01:04:10.865Z,8.40
2022-09-10T01:06:41.470Z,7.50
2022-09-10T01:09:11.014Z,7.60
2022-09-10T01:11:57.797Z,8.30
2022-09-10T01:14:54.587Z,8.10
2022-09-10T01:17:32.485Z,7.83
2022-09-10T01:20:40.378Z,7.43
2022-09-10T01:23:34.329Z,7.40
2022-09-10T01:26:15.477Z,8.40
2022-09-10T01:28:50.385Z,8.70
2022-09-10T01:31:26.139Z,9.00
2022-09-10T01:34:02.128Z,9.00
2022-09-10T01:36:34.144Z,9.10
2022-09-10T01:39:03.237Z,8.20
2022-09-10T01:41:32.086Z,9.30
2022-09-10T01:44:10.793Z,9.00
2022-09-10T01:46:56.744Z,9.93
2022-09-10T01:49:31.181Z,10.73
2022-09-10T01:52:16.799Z,10.80
2022-09-10T01:54:57.097Z,8.87
2022-09-10T01:57:33.841Z,10.10
2022-09-10T02:00:08.941Z,9.53
2022-09-10T02:02:47.171Z,10.17
2022-09-10T02:05:17.738Z,10.37
2022-09-10T02:07:50.822Z,8.70
2022-09-10T02:10:20.422Z,8.50
2022-09-10T02:12:48.752Z,10.23
2022-09-10T02:15:45.545Z,11.00
2022-09-10T02:18:22.618Z,9.97
2022-09-10T02:20:53.349Z,10.43
2022-09-10T02:23:26.037Z,9.30
2022-09-10T02:25:54.138Z,8.70
2022-09-10T02:28:28.839Z,9.60
2022-09-10T02:30:58.545Z,8.73
2022-09-10T02:33:27.880Z,9.70
2022-09-10T02:35:56.936Z,10.50
2022-09-10T02:38:25.078Z,9.50
2022-09-10T02:40:59.082Z,9.97
2022-09-10T02:43:27.285Z,10.40
2022-09-10T02:46:00.471Z,10.60
2022-09-10T02:48:31.078Z,10.13
2022-09-10T02:50:59.672Z,10.63
2022-09-10T02:53:30.938Z,11.10
2022-09-10T02:56:01.041Z,10.83
2022-09-10T02:58:31.348Z,11.57
2022-09-10T03:01:08.732Z,9.40
2022-09-10T03:03:37.905Z,10.70
2022-09-10T03:06:06.839Z,10.40
2022-09-10T03:08:35.746Z,10.67
2022-09-10T03:11:05.093Z,12.00
2022-09-10T03:13:35.140Z,11.90
2022-09-10T03:16:04.310Z,14.67
2022-09-10T03:18:35.806Z,15.10
2022-09-10T03:21:13.186Z,13.07
2022-09-10T03:23:41.922Z,14.10
2022-09-10T03:26:10.874Z,12.73
2022-09-10T03:28:39.443Z,13.53
2022-09-10T03:31:10.191Z,11.17
2022-09-10T03:33:46.065Z,11.17
2022-09-10T03:36:14.728Z,11.30
2022-09-10T03:38:44.801Z,11.10
2022-09-10T03:41:15.469Z,10.83
2022-09-10T03:43:43.577Z,11.33
2022-09-10T03:46:15.309Z,10.63
2022-09-10T03:48:46.912Z,11.77
2022-09-10T03:51:17.092Z,11.77
2022-09-10T03:53:46.418Z,12.30
2022-09-10T03:56:20.060Z,12.90
2022-09-10T03:58:49.107Z,13.70
2022-09-10T04:01:18.002Z,11.97
2022-09-10T04:03:49.997Z,12.30
2022-09-10T04:06:18.198Z,12.40
2022-09-10T04:08:49.685Z,11.33
2022-09-10T04:11:17.878Z,12.07
2022-09-10T04:13:46.729Z,12.27
2022-09-10T04:16:15.789Z,13.37
2022-09-10T04:18:44.034Z,12.67
2022-09-10T04:21:13.474Z,12.17
2022-09-10T04:23:43.106Z,12.33
2022-09-10T04:26:15.549Z,13.37
2022-09-10T04:28:46.143Z,12.53
2022-09-10T04:31:16.386Z,13.07
2022-09-10T04:33:45.318Z,12.17
2022-09-10T04:36:15.572Z,12.93
2022-09-10T04:38:45.154Z,13.30
2022-09-10T04:41:18.166Z,12.43
2022-09-10T04:43:46.510Z,12.27
2022-09-10T04:46:14.701Z,12.17
2022-09-10T04:48:44.325Z,15.07
2022-09-10T04:51:18.116Z,12.70
2022-09-10T04:53:55.947Z,14.30
2022-09-10T04:56:29.467Z,13.57
2022-09-10T04:58:57.618Z,14.17
2022-09-10T05:01:28.572Z,14.47
2022-09-10T05:03:56.666Z,12.67
2022-09-10T05:06:26.514Z,14.30
2022-09-10T05:08:55.737Z,15.13
2022-09-10T05:11:24.688Z,14.50
2022-09-10T05:13:53.999Z,13.67
2022-09-10T05:16:24.935Z,13.00
2022-09-10T05:18:53.201Z,14.90
2022-09-10T05:21:21.543Z,15.60
2022-09-10T05:23:51.886Z,16.27
2022-09-10T05:26:20.031Z,15.67
2022-09-10T05:28:48.775Z,17.73
2022-09-10T05:31:18.332Z,14.40
2022-09-10T05:33:47.613Z,17.87
2022-09-10T05:36:18.790Z,16.10
2022-09-10T05:38:47.020Z,17.40
2022-09-10T05:41:18.351Z,15.47
2022-09-10T05:43:50.056Z,16.97
2022-09-10T05:46:18.448Z,18.40
2022-09-10T05:48:50.954Z,16.23
2022-09-10T05:51:21.005Z,18.10
2022-09-10T05:53:50.725Z,18.10
2022-09-10T05:56:21.409Z,17.70
2022-09-10T05:58:49.619Z,20.00
2022-09-10T06:01:19.269Z,18.60
2022-09-10T06:03:47.646Z,21.00
2022-09-10T06:06:19.554Z,20.73
2022-09-10T06:08:57.756Z,19.77
2022-09-10T06:11:45.520Z,22.30
2022-09-10T06:14:14.865Z,19.63
2022-09-10T06:16:43.391Z,18.60
2022-09-10T06:19:12.551Z,19.40
2022-09-10T06:21:40.696Z,19.80
2022-09-10T06:24:08.751Z,18.80
2022-09-10T06:26:39.448Z,20.17
2022-09-10T06:29:13.301Z,19.47
2022-09-10T06:31:42.688Z,21.00
2022-09-10T06:34:11.653Z,23.30
2022-09-10T06:36:40.002Z,19.57
2022-09-10T06:39:08.152Z,21.20
2022-09-10T06:41:49.906Z,20.67
2022-09-10T06:44:37.960Z,22.00
2022-09-10T06:50:06.411Z,20.50
2022-09-10T06:52:37.802Z,19.63
2022-09-10T06:55:10.792Z,21.17
2022-09-10T06:57:45.392Z,20.50
2022-09-10T07:00:17.632Z,20.80
2022-09-10T07:02:50.714Z,20.23
2022-09-10T07:05:19.265Z,19.23
2022-09-10T07:07:47.609Z,20.20
2022-09-10T07:10:16.656Z,21.37
2022-09-10T07:12:46.085Z,20.90
2022-09-10T07:15:17.386Z,24.20
2022-09-10T07:17:47.353Z,22.97
2022-09-10T07:20:16.914Z,22.10
2022-09-10T07:22:47.607Z,21.27
2022-09-10T07:25:18.847Z,21.63
2022-09-10T07:27:58.389Z,20.43
2022-09-10T07:30:29.478Z,21.00
2022-09-10T07:32:59.102Z,21.23
2022-09-10T07:35:29.255Z,22.13
2022-09-10T07:37:57.313Z,23.23
2022-09-10T07:40:27.685Z,22.30
2022-09-10T07:42:56.679Z,22.33
2022-09-10T07:45:25.931Z,21.33
2022-09-10T07:47:54.278Z,20.73
2022-09-10T07:50:23.856Z,20.47
2022-09-10T07:52:54.632Z,20.90
2022-09-10T07:55:26.003Z,22.43
2022-09-10T07:57:59.538Z,20.77
2022-09-10T08:00:29.173Z,20.50
2022-09-10T08:03:00.978Z,22.20
2022-09-10T08:05:31.140Z,22.40
2022-09-10T08:08:01.719Z,22.63
2022-09-10T08:10:30.560Z,23.20
2022-09-10T08:12:59.473Z,22.37
2022-09-10T08:15:27.957Z,22.67
2022-09-10T08:17:59.858Z,23.03
2022-09-10T08:20:30.013Z,23.40
2022-09-10T08:22:59.681Z,24.30
2022-09-10T08:25:27.753Z,23.67
2022-09-10T08:27:58.302Z,24.73
2022-09-10T08:30:26.537Z,24.20
2022-09-10T08:32:54.795Z,23.40
2022-09-10T08:35:23.021Z,24.97
2022-09-10T08:37:52.924Z,23.97
2022-09-10T08:40:23.598Z,23.30
2022-09-10T08:42:53.242Z,22.97
2022-09-10T08:45:28.287Z,27.23
2022-09-10T08:48:02.353Z,27.13
2022-09-10T08:50:39.284Z,25.43
2022-09-10T08:53:26.300Z,27.33
2022-09-10T08:55:59.438Z,26.67
2022-09-10T08:58:34.117Z,25.80
2022-09-10T09:01:04.879Z,25.60
2022-09-10T09:03:39.070Z,23.30
2022-09-10T09:06:12.942Z,24.77
2022-09-10T09:08:49.500Z,26.20
2022-09-10T09:11:34.397Z,25.37
2022-09-10T09:14:21.196Z,24.43
2022-09-10T09:17:06.055Z,25.97
2022-09-10T09:19:38.882Z,26.23
2022-09-10T09:22:13.077Z,24.87
2022-09-10T09:24:51.406Z,24.60
2022-09-10T09:27:20.902Z,26.30
2022-09-10T09:29:57.009Z,25.13
2022-09-10T09:32:27.313Z,25.70
2022-09-10T09:34:59.492Z,26.00
2022-09-10T09:37:31.157Z,25.83
2022-09-10T09:40:15.742Z,25.33
2022-09-10T09:42:50.424Z,26.17
2022-09-10T09:45:26.430Z,25.83
2022-09-10T09:47:55.829Z,25.00
2022-09-10T09:50:24.023Z,27.33
2022-09-10T09:52:56.468Z,25.30
2022-09-10T09:55:32.887Z,24.90
2022-09-10T09:58:29.430Z,23.63
2022-09-10T10:01:15.025Z,22.20
2022-09-10T10:04:03.099Z,22.63
2022-09-10T10:06:33.550Z,22.57
2022-09-10T10:09:04.259Z,22.20
2022-09-10T10:11:53.737Z,21.50
2022-09-10T10:14:39.194Z,20.57
2022-09-10T10:17:38.341Z,23.67
2022-09-10T10:20:12.906Z,23.20
2022-09-10T10:22:43.025Z,24.77
2022-09-10T10:25:38.368Z,23.20
2022-09-10T10:28:18.846Z,21.00
2022-09-10T10:30:53.371Z,22.10
2022-09-10T10:33:27.850Z,21.50
2022-09-10T10:36:04.190Z,22.00
2022-09-10T10:38:35.786Z,19.90
2022-09-10T10:41:30.720Z,21.50
2022-09-10T10:44:24.269Z,18.07
2022-09-10T10:47:11.772Z,19.63
2022-09-10T10:49:53.240Z,19.63
2022-09-10T10:52:29.724Z,19.30
2022-09-10T10:55:07.393Z,17.93
2022-09-10T10:57:55.544Z,15.37
2022-09-10T11:00:25.753Z,18.57
2022-09-10T11:03:01.903Z,16.60
2022-09-10T11:05:33.386Z,16.60
2022-09-10T11:08:07.269Z,17.23
2022-09-10T11:10:40.419Z,16.63
2022-09-10T11:13:14.304Z,16.10
2022-09-10T11:15:49.489Z,16.23
2022-09-10T11:18:23.997Z,16.83
2022-09-10T11:21:00.820Z,15.10
2022-09-10T11:23:35.231Z,15.50
2022-09-10T11:26:08.812Z,14.90
2022-09-10T11:28:42.082Z,15.70
2022-09-10T11:31:15.621Z,15.23
2022-09-10T11:33:56.355Z,14.53
2022-09-10T11:36:29.460Z,14.97
2022-09-10T11:39:09.063Z,13.90
2022-09-10T11:41:42.226Z,14.57
2022-09-10T11:44:26.066Z,14.27
2022-09-10T11:47:03.129Z,14.07
2022-09-10T11:49:42.189Z,13.67
2022-09-10T11:52:11.977Z,14.40
2022-09-10T11:54:40.839Z,15.07
2022-09-10T11:57:14.771Z,13.50
2022-09-10T12:00:05.854Z,12.77
2022-09-10T12:03:11.494Z,13.77
2022-09-10T12:05:49.282Z,12.80
2022-09-10T12:08:29.555Z,13.23
2022-09-10T12:11:09.843Z,12.13
2022-09-10T12:13:39.364Z,12.37
2022-09-10T12:16:18.578Z,11.97
2022-09-10T12:18:51.848Z,13.83
2022-09-10T12:21:29.597Z,12.93
2022-09-10T12:23:58.321Z,12.30
2022-09-10T12:26:26.732Z,11.70
2022-09-10T12:29:03.862Z,13.90
2022-09-10T12:32:05.882Z,11.83
2022-09-10T12:34:36.190Z,11.43
2022-09-10T12:37:20.860Z,11.67
2022-09-10T12:39:49.982Z,13.03
2022-09-10T12:42:34.530Z,11.13
2022-09-10T12:45:02.871Z,12.30
2022-09-10T12:47:55.301Z,11.30
2022-09-10T12:50:33.677Z,10.20
2022-09-10T12:53:45.593Z,11.17
2022-09-10T12:56:55.814Z,10.87
2022-09-10T12:59:41.019Z,10.20
2022-09-10T13:02:22.635Z,11.80
2022-09-10T13:04:57.341Z,10.20
2022-09-10T13:07:32.656Z,10.97
2022-09-10T13:10:06.600Z,11.30
2022-09-10T13:12:36.361Z,9.53
2022-09-10T13:15:05.096Z,10.00
2022-09-10T13:18:01.275Z,8.77
2022-09-10T13:20:34.591Z,8.07
2022-09-10T13:23:05.961Z,7.53
2022-09-10T13:25:41.502Z,8.17
2022-09-10T13:28:47.054Z,8.00
2022-09-10T13:31:21.948Z,8.07
2022-09-10T13:34:12.504Z,7.03
2022-09-10T13:36:48.222Z,5.57
2022-09-10T13:39:57.377Z,5.80
2022-09-10T13:42:45.557Z,6.17
2022-09-10T13:45:23.703Z,7.63
2022-09-10T13:48:01.156Z,6.97
2022-09-10T13:50:33.817Z,5.80
2022-09-10T13:53:05.678Z,6.53
2022-09-10T13:55:36.144Z,7.17
2022-09-10T13:58:14.132Z,6.70
2022-09-10T14:00:50.206Z,8.53
2022-09-10T14:03:23.201Z,8.40
2022-09-10T14:05:54.006Z,7.10
2022-09-10T14:08:25.853Z,9.23
2022-09-10T14:11:01.396Z,11.73
2022-09-10T14:13:35.518Z,10.97
2022-09-10T14:16:07.353Z,12.33
2022-09-10T14:18:43.922Z,12.83
2022-09-10T14:21:16.103Z,11.00
2022-09-10T14:23:46.023Z,10.30
2022-09-10T14:26:23.175Z,12.37
2022-09-10T14:28:57.021Z,11.47
2022-09-10T14:31:37.588Z,11.73
2022-09-10T14:34:26.105Z,9.90
2022-09-10T14:36:54.321Z,10.90
2022-09-10T14:39:24.072Z,10.40
2022-09-10T14:42:10.889Z,9.60
2022-09-10T14:44:42.737Z,8.70
2022-09-10T14:47:15.985Z,8.70
2022-09-10T14:49:47.173Z,9.90
2022-09-10T14:52:15.994Z,9.53
2022-09-10T14:54:44.137Z,10.17
2022-09-10T14:57:15.901Z,9.93
2022-09-10T14:59:46.258Z,9.60
2022-09-10T15:02:17.499Z,10.53
2022-09-10T15:04:46.681Z,9.03
2022-09-10T15:07:15.017Z,9.43
2022-09-10T15:09:43.365Z,9.83
2022-09-10T15:12:19.548Z,10.13
2022-09-10T15:14:47.713Z,10.90
2022-09-10T15:17:17.571Z,11.47
2022-09-10T15:19:47.152Z,13.77
2022-09-10T15:22:23.523Z,14.27
2022-09-10T15:25:09.157Z,16.77
2022-09-10T15:27:39.577Z,15.73
2022-09-10T15:30:08.715Z,18.00
2022-09-10T15:32:36.777Z,16.80
2022-09-10T15:35:05.821Z,18.00
2022-09-10T15:37:34.016Z,17.50
2022-09-10T15:40:02.105Z,18.33
2022-09-10T15:42:31.990Z,17.27
2022-09-10T15:45:01.606Z,17.20
2022-09-10T15:47:33.514Z,16.23
2022-09-10T15:50:01.631Z,15.77
2022-09-10T15:52:30.006Z,15.60
2022-09-10T15:54:58.098Z,14.97
2022-09-10T15:57:26.281Z,15.23
2022-09-10T15:59:54.486Z,14.07
2022-09-10T16:02:25.381Z,15.23
2022-09-10T16:04:53.919Z,14.13
2022-09-10T16:07:22.071Z,14.60
2022-09-10T16:09:50.408Z,13.30
2022-09-10T16:12:18.662Z,13.87
2022-09-10T16:14:46.891Z,12.00
2022-09-10T16:17:17.286Z,12.60
2022-09-10T16:19:46.878Z,12.03
2022-09-10T16:22:19.969Z,10.97
2022-09-10T16:24:48.764Z,11.33
2022-09-10T16:27:17.651Z,10.43
2022-09-10T16:29:47.038Z,11.00
2022-09-10T16:32:15.432Z,11.60
2022-09-10T16:34:43.674Z,11.37
2022-09-10T16:37:14.193Z,12.10
2022-09-10T16:39:42.524Z,12.70
2022-09-10T16:42:10.897Z,11.10
2022-09-10T16:44:39.427Z,11.70
2022-09-10T16:47:07.946Z,11.83
2022-09-10T16:49:36.174Z,11.67
2022-09-10T16:52:05.139Z,10.23
2022-09-10T16:54:34.539Z,10.37
2022-09-10T16:57:02.614Z,11.43
2022-09-10T16:59:30.737Z,10.70
2022-09-10T17:02:00.677Z,10.93
2022-09-10T17:04:29.462Z,11.47
2022-09-10T17:06:58.089Z,11.43
2022-09-10T17:09:26.630Z,11.83
2022-09-10T17:11:56.401Z,11.87
2022-09-10T17:14:24.753Z,12.50
2022-09-10T17:16:53.179Z,11.80
2022-09-10T17:19:26.184Z,13.77
2022-09-10T17:21:56.178Z,12.53
2022-09-10T17:24:25.992Z,13.60
2022-09-10T17:26:56.203Z,13.13
2022-09-10T17:29:26.767Z,13.67
2022-09-10T17:31:57.529Z,14.40
2022-09-10T17:34:27.215Z,14.70
2022-09-10T17:36:56.191Z,14.63
2022-09-10T17:39:28.066Z,15.00
2022-09-10T17:41:58.877Z,13.87
2022-09-10T17:44:27.521Z,15.00
2022-09-10T17:46:56.229Z,14.57
2022-09-10T17:49:24.669Z,14.40
2022-09-10T17:51:53.245Z,14.43
2022-09-10T17:54:21.473Z,14.37
2022-09-10T17:56:49.554Z,15.60
2022-09-10T17:59:19.266Z,16.30
2022-09-10T18:01:47.898Z,15.90
2022-09-10T18:04:16.295Z,14.73
2022-09-10T18:06:48.947Z,16.73
2022-09-10T18:09:19.867Z,14.90
2022-09-10T18:11:48.022Z,17.23
2022-09-10T18:14:18.605Z,16.87
2022-09-10T18:16:47.266Z,16.03
2022-09-10T18:19:17.662Z,17.67
2022-09-10T18:21:47.321Z,17.70
2022-09-10T18:24:17.092Z,16.77
2022-09-10T18:26:48.313Z,17.87
2022-09-10T18:29:20.044Z,17.07
2022-09-10T18:31:50.190Z,16.20
2022-09-10T18:34:23.063Z,16.80
2022-09-10T18:36:54.279Z,16.70
2022-09-10T18:39:24.308Z,16.10
2022-09-10T18:41:52.719Z,17.33
2022-09-10T18:44:24.161Z,15.43
2022-09-10T18:46:53.794Z,15.30
2022-09-10T18:49:23.410Z,15.17
2022-09-10T18:51:52.376Z,15.50
2022-09-10T18:54:21.871Z,14.90
2022-09-10T18:56:50.626Z,13.93
2022-09-10T18:59:21.182Z,15.23
2022-09-10T19:01:52.088Z,13.60
2022-09-10T19:04:23.833Z,14.17
2022-09-10T19:06:52.970Z,14.60
2022-09-10T19:09:23.546Z,15.27
2022-09-10T19:11:54.025Z,13.97
2022-09-10T19:14:26.347Z,15.37
2022-09-10T19:16:57.000Z,15.23
2022-09-10T19:19:27.533Z,13.10
2022-09-10T19:21:59.247Z,14.57
2022-09-10T19:24:51.051Z,14.50
2022-09-10T19:27:16.136Z,13.63
2022-09-10T19:29:44.378Z,14.40
2022-09-10T19:32:15.128Z,13.97
2022-09-10T19:34:43.559Z,15.00
2022-09-10T19:37:11.706Z,15.67
2022-09-10T19:39:39.869Z,16.63
2022-09-10T19:42:08.089Z,17.60
2022-09-10T19:44:36.833Z,19.47
2022-09-10T19:47:05.077Z,18.80
2022-09-10T19:49:35.324Z,18.20
2022-09-10T19:52:04.320Z,16.90
2022-09-10T19:54:32.431Z,17.57
2022-09-10T19:57:00.523Z,17.63
2022-09-10T19:59:28.591Z,17.03
2022-09-10T20:01:56.776Z,18.40
2022-09-10T20:04:25.621Z,19.23
2022-09-10T20:06:55.116Z,19.20
2022-09-10T20:09:23.200Z,20.63
2022-09-10T20:11:51.384Z,20.00
2022-09-10T20:14:19.802Z,19.23
2022-09-10T20:16:47.867Z,19.33
2022-09-10T20:19:18.815Z,18.87
2022-09-10T20:21:47.623Z,18.20
2022-09-10T20:24:17.486Z,20.97
2022-09-10T20:26:46.479Z,20.30
2022-09-10T20:29:16.444Z,19.17
2022-09-10T20:31:45.289Z,18.77
2022-09-10T20:34:15.507Z,19.17
2022-09-10T20:36:43.684Z,20.57
2022-09-10T20:39:15.013Z,20.63
2022-09-10T20:41:44.837Z,19.10
2022-09-10T20:44:15.809Z,20.00
2022-09-10T20:46:44.760Z,22.57
2022-09-10T20:49:14.158Z,21.23
2022-09-10T20:51:43.407Z,22.40
2022-09-10T20:54:13.741Z,23.80
2022-09-10T20:56:42.685Z,22.13
2022-09-10T20:59:14.983Z,22.43
2022-09-10T21:01:46.270Z,24.10
2022-09-10T21:04:15.562Z,24.30
2022-09-10T21:06:43.840Z,26.37
2022-09-10T21:09:12.572Z,27.27
2022-09-10T21:11:40.752Z,27.80
2022-09-10T21:14:09.805Z,25.73
2022-09-10T21:16:41.400Z,26.57
2022-09-10T21:19:12.403Z,25.07
2022-09-10T21:21:42.208Z,28.00
2022-09-10T21:24:13.057Z,26.53
2022-09-10T21:26:43.292Z,27.40
2022-09-10T21:29:16.331Z,27.60
2022-09-10T21:31:46.525Z,27.60
2022-09-10T21:34:15.375Z,26.17
2022-09-10T21:36:43.666Z,28.43
2022-09-10T21:39:14.689Z,28.10
2022-09-10T21:41:45.079Z,31.97
2022-09-10T21:44:17.321Z,30.40
2022-09-10T21:46:48.709Z,29.07
2022-09-10T21:49:17.316Z,28.50
2022-09-10T21:51:45.767Z,29.50
2022-09-10T21:54:17.093Z,29.10
2022-09-10T21:56:45.589Z,28.40
2022-09-10T21:59:14.482Z,29.83
2022-09-10T22:01:44.583Z,30.97
2022-09-10T22:04:18.804Z,31.43
2022-09-10T22:06:49.835Z,30.27
2022-09-10T22:09:19.785Z,31.93
2022-09-10T22:11:50.391Z,32.77
2022-09-10T22:14:20.888Z,29.20
2022-09-10T22:16:49.906Z,29.77
2022-09-10T22:19:21.669Z,30.23
2022-09-10T22:21:50.202Z,29.17
2022-09-10T22:24:19.300Z,31.17
2022-09-10T22:26:47.915Z,29.47
2022-09-10T22:29:18.380Z,28.80
2022-09-10T22:31:46.945Z,30.87
2022-09-10T22:34:16.480Z,31.07
2022-09-10T22:36:47.354Z,30.20
2022-09-10T22:39:17.681Z,29.97
2022-09-10T22:41:46.561Z,29.70
2022-09-10T22:44:15.151Z,29.83
2022-09-10T22:46:43.682Z,30.67
2022-09-10T22:49:11.858Z,29.43
2022-09-10T22:51:41.842Z,30.53
2022-09-10T22:54:15.088Z,29.63
2022-09-10T22:56:44.502Z,32.70
2022-09-10T22:59:14.611Z,31.30
2022-09-10T23:01:46.490Z,34.10
2022-09-10T23:04:15.136Z,34.00
2022-09-10T23:06:43.200Z,33.63
2022-09-10T23:09:15.845Z,35.53
2022-09-10T23:11:45.361Z,35.30
2022-09-10T23:14:17.661Z,33.90
2022-09-10T23:16:47.698Z,34.30
2022-09-10T23:19:18.007Z,37.87
2022-09-10T23:21:48.013Z,37.93
2022-09-10T23:24:19.177Z,35.77
2022-09-10T23:26:47.477Z,38.80
2022-09-10T23:29:17.005Z,36.90
2022-09-10T23:31:46.903Z,37.30
2022-09-10T23:34:16.977Z,38.10
2022-09-10T23:36:46.701Z,39.50
2022-09-10T23:39:18.000Z,38.67
2022-09-10T23:41:46.108Z,36.87
2022-09-10T23:44:15.543Z,34.03
2022-09-10T23:46:44.574Z,36.07
2022-09-10T23:49:13.084Z,34.33
2022-09-10T23:51:41.378Z,37.30
2022-09-10T23:54:10.454Z,35.80
2022-09-10T23:56:40.134Z,34.23
2022-09-10T23:59:08.926Z,33.80
